Hlavní strana
METAR-TAF:

METAR-TAF

Letiště :

Letiště Gran Canaria

Gran Canaria, Španělsko

zeměpisná šířka: 27-56N, zeměpisná délka: 015-23W, výška: 23 m

Aktuální stav počasí

Zpráva byla vytvořena před 22 minutami, v 22:00 UTC
Severní vítr 19 kt
Teplota 18°C
Vlhkost vzduchu 73%
Tlak 1026 hPa
Viditelnost 10 km a více
Skoro jasno ve výšce 2300 ft
Oblačno až skoro zataženo ve výšce 3300 ft

METAR: GCLP 182200Z 01019KT 9999 FEW023 BKN033 18/13 Q1026 NOSIG

Čas: 22:22 (22:22 UTC)

Předpověď počasí

Zpráva byla vytvořena před 2 hodinami a 22 minutami, v 20:00 UTC
Předpověď platná od 18 v 21 UTC do 19 v 21 UTC
Severní vítr 21 kt
Viditelnost 10 km a více
Oblačno až skoro zataženo ve výšce 2500 ft

TAF: GCLP 182000Z 1821/1921 01021KT 9999 BKN025 TX21/1914Z TN16/1906Z

Stav a předpovědi počasí z více než 4 000 letišť (zprávy METAR a TAF).

Červené a žluté tečky na mapě představují dostupné meteorologické stanice.

Když kurzor umístíte na tečku, zobrazí se název stanice.

Pak kliknutím zobrazíte stav a předpověď počasí.

Chcete-li změnit mapu, kliknutím na zelené tlačítko se znaménkem +mapu přiblížíte, kliknutím na zelené tlačítko se znaménkem – mapu oddálíte a kliknutím na zelené šipky přejdete na sousední mapy.


METAR-TAF: